Map

Track Data

SID SEASON NUMBER BASIN SUBBASIN NAME ISO_TIME NATURE LAT LON WMO_WIND WMO_PRES WMO_AGENCY TRACK_TYPE DIST2LAND LANDFALL IFLAG USA_AGENCY USA_ATCF_ID USA_LAT USA_LON USA_RECORD USA_STATUS USA_WIND USA_PRES USA_SSHS USA_R34_NE USA_R34_SE USA_R34_SW USA_R34_NW USA_R50_NE USA_R50_SE USA_R50_SW USA_R50_NW USA_R64_NE USA_R64_SE USA_R64_SW USA_R64_NW USA_POCI USA_ROCI USA_RMW USA_EYE TOKYO_LAT TOKYO_LON TOKYO_GRADE TOKYO_WIND TOKYO_PRES TOKYO_R50_DIR TOKYO_R50_LONG TOKYO_R50_SHORT TOKYO_R30_DIR TOKYO_R30_LONG TOKYO_R30_SHORT TOKYO_LAND CMA_LAT CMA_LON CMA_CAT CMA_WIND CMA_PRES HKO_LAT HKO_LON HKO_CAT HKO_WIND HKO_PRES NEWDELHI_LAT NEWDELHI_LON NEWDELHI_GRADE NEWDELHI_WIND NEWDELHI_PRES NEWDELHI_CI NEWDELHI_DP NEWDELHI_POCI REUNION_LAT REUNION_LON REUNION_TYPE REUNION_WIND REUNION_PRES REUNION_TNUM REUNION_CI REUNION_RMW REUNION_R34_NE REUNION_R34_SE REUNION_R34_SW REUNION_R34_NW REUNION_R50_NE REUNION_R50_SE REUNION_R50_SW REUNION_R50_NW REUNION_R64_NE REUNION_R64_SE REUNION_R64_SW REUNION_R64_NW BOM_LAT BOM_LON BOM_TYPE BOM_WIND BOM_PRES BOM_TNUM BOM_CI BOM_RMW BOM_R34_NE BOM_R34_SE BOM_R34_SW BOM_R34_NW BOM_R50_NE BOM_R50_SE BOM_R50_SW BOM_R50_NW BOM_R64_NE BOM_R64_SE BOM_R64_SW BOM_R64_NW BOM_ROCI BOM_POCI BOM_EYE BOM_POS_METHOD BOM_PRES_METHOD NADI_LAT NADI_LON NADI_CAT NADI_WIND NADI_PRES WELLINGTON_LAT WELLINGTON_LON WELLINGTON_WIND WELLINGTON_PRES DS824_LAT DS824_LON DS824_STAGE DS824_WIND DS824_PRES TD9636_LAT TD9636_LON TD9636_STAGE TD9636_WIND TD9636_PRES TD9635_LAT TD9635_LON TD9635_WIND TD9635_PRES TD9635_ROCI NEUMANN_LAT NEUMANN_LON NEUMANN_CLASS NEUMANN_WIND NEUMANN_PRES MLC_LAT MLC_LON MLC_CLASS MLC_WIND MLC_PRES USA_GUST BOM_GUST BOM_GUST_PER REUNION_GUST REUNION_GUST_PER USA_SEAHGT USA_SEARAD_NE USA_SEARAD_SE USA_SEARAD_SW USA_SEARAD_NW STORM_SPEED STORM_DIR
2020344S11109 2021 48 SI WA NOT_NAMED 2020-12-08 18:00:00 NR -11.0000 108.500 PROVISIONAL 358 358 O_____________ tcvitals SI032020 -11.0000 108.500 45 992 0 45 65 75 1003 130 25 4 95
2020344S11109 2021 48 SI WA NOT_NAMED 2020-12-08 21:00:00 NR -11.0174 108.705 PROVISIONAL 359 358 P_____________ SI032020 -11.0174 108.705 45 993 0 45 67 72 1003 128 25 5 102
2020344S11109 2021 48 SI WA NOT_NAMED 2020-12-09 00:00:00 NR -11.1000 109.000 PROVISIONAL 369 367 O_____________ tcvitals SI032020 -11.1000 109.000 45 994 0 45 70 70 1004 126 25 8 111
2020344S11109 2021 48 SI WA NOT_NAMED 2020-12-09 03:00:00 NR -11.2976 109.435 PROVISIONAL 375 371 P_____________ SI032020 -11.2976 109.435 45 993 0 65 70 87 1003 138 25 10 120
2020344S11109 2021 48 SI WA NOT_NAMED 2020-12-09 06:00:00 NR -11.6000 109.900 PROVISIONAL 390 390 O_____________ tcvitals SI032020 -11.6000 109.900 45 993 0 85 40 70 105 1003 150 25 11 129
2020344S11109 2021 48 SI WA NOT_NAMED 2020-12-09 09:00:00 NR -11.9700 110.295 PROVISIONAL 425 423 P_____________ SI032020 -11.9700 110.295 40 995 0 72 50 75 95 1003 138 25 11 139
2020344S11109 2021 48 SI WA NOT_NAMED 2020-12-09 12:00:00 NR -12.4000 110.600 PROVISIONAL 463 463 O_____________ tcvitals SI032020 -12.4000 110.600 35 998 0 60 60 80 85 1003 126 25 10 153
2020344S11109 2021 48 SI WA NOT_NAMED 2020-12-09 15:00:00 NR -12.8555 110.766 PROVISIONAL 513 513 P_____________ SI032020 -12.8536 110.760 35 998 0 60 50 75 77 1002 138 25 10 162
2020344S11109 2021 48 SI WA NOT_NAMED 2020-12-09 18:00:00 NR -13.3000 110.900 PROVISIONAL 555 555 O_____________ tcvitals SI032020 -13.3000 110.900 35 998 0 60 40 70 70 1002 150 25 9 158
2020344S11109 2021 48 SI WA NOT_NAMED 2020-12-09 21:00:00 NR -13.6717 111.096 PROVISIONAL 597 597 P_____________ SI032020 -13.6861 111.145 35 998 0 52 40 65 67 1003 165 25 9 147
2020344S11109 2021 48 SI WA NOT_NAMED 2020-12-10 00:00:00 NR -14.0249 111.385 PROVISIONAL 628 628 I_____________ tcvitals SI032020 -14.0499 111.469 35 999 0 45 40 60 65 1004 180 25 10 137
2020344S11109 2021 48 SI WA NOT_NAMED 2020-12-10 03:00:00 NR -14.3994 111.804 PROVISIONAL 672 672 P_____________ SI032020 -14.4136 111.853 35 1000 0 45 40 62 65 1004 180 25 12 131
2020344S11109 2021 48 SI WA NOT_NAMED 2020-12-10 06:00:00 NR -14.8000 112.300 PROVISIONAL 713 710 O_____________ tcvitals SI032020 -14.8000 112.300 35 1001 0 45 40 65 65 1004 180 25 13 131
2020344S11109 2021 48 SI WA NOT_NAMED 2020-12-10 09:00:00 NR -15.2180 112.787 PROVISIONAL 731 655 P_____________ SI032020 -15.2162 112.780 35 1001 0 45 35 67 47 1004 180 25 13 133
2020344S11109 2021 48 SI WA NOT_NAMED 2020-12-10 12:00:00 NR -15.7000 113.300 PROVISIONAL 655 594 O_____________ tcvitals SI032020 -15.7000 113.300 35 1001 0 45 30 70 30 1004 180 25 13 136
2020344S11109 2021 48 SI WA NOT_NAMED 2020-12-10 15:00:00 NR -16.1562 113.726 PROVISIONAL 585 494 P_____________ SI032020 -16.1562 113.726 35 1000 0 47 32 70 30 1003 180 25 16 139
2020344S11109 2021 48 SI WA NOT_NAMED 2020-12-10 18:00:00 NR -16.9000 114.400 PROVISIONAL 479 292 O_____________ tcvitals SI032020 -16.9000 114.400 35 1000 0 50 35 70 30 1003 180 25 28 139
2020344S11109 2021 48 SI WA NOT_NAMED 2020-12-10 21:00:00 NR -18.2419 115.651 PROVISIONAL 288 113 P_____________ SI032020 -18.2873 115.684 37 999 0 50 37 70 30 1003 180 25 38 138
2020344S11109 2021 48 SI WA NOT_NAMED 2020-12-11 00:00:00 NR -19.7000 117.100 PROVISIONAL 105 0 O_____________ tcvitals SI032020 -19.7000 117.100 39 999 0 50 40 70 30 1003 180 25 33 135
2020344S11109 2021 48 SI WA NOT_NAMED 2020-12-11 03:00:00 NR -20.5784 118.173 PROVISIONAL 0 0 P_____________ SI032020 -20.5784 118.173 37 999 0 1003 180 27 23 128
2020344S11109 2021 48 SI WA NOT_NAMED 2020-12-11 06:00:00 NR -21.1000 119.000 PROVISIONAL 0 O_____________ tcvightals SI032020 -21.1000 119.000 35 999 0 1003 180 30 19 124

About IBTrACS Database

This database is a web-friendly format of International Best Track Archive for Climate Stewardship (IBTrACS), a global best track data archive curated by NOAA dating back to 1842.

Updated: 2021-12-03